Time,TemperatureF,DewpointF,PressureIn,WindDirection,WindDirectionDegrees,WindSpeedMPH,WindSpeedGustMPH,Humidity,HourlyPrecipIn,Conditions,Clouds,dailyrainin,SolarRadiationWatts/m^2,SoftwareType,DateUTC
2013-04-05 00:17:00,41.5,24.0,30.07,SSW,202,1.0,-999.0,50,-99.99,,,0.00,0,weatherlink.com 1.10,2013-04-05 04:17:00,
2013-04-05 00:32:00,41.3,24.0,30.06,SW,223,2.0,-999.0,50,-99.99,,,0.00,0,weatherlink.com 1.10,2013-04-05 04:32:00,
2013-04-05 00:47:00,41.0,24.0,30.06,SSW,194,0.0,-999.0,51,-99.99,,,0.00,0,weatherlink.com 1.10,2013-04-05 04:47:00,
2013-04-05 01:02:00,40.8,25.0,30.06,SSW,196,2.0,-999.0,53,-99.99,,,0.00,0,weatherlink.com 1.10,2013-04-05 05:02:00,
2013-04-05 01:17:00,40.6,25.0,30.06,SW,215,8.0,-999.0,55,-99.99,,,0.00,0,weatherlink.com 1.10,2013-04-05 05:17:00,
2013-04-05 01:32:00,40.6,27.0,30.06,South,171,7.0,-999.0,58,-99.99,,,0.00,0,weatherlink.com 1.10,2013-04-05 05:32:00,
2013-04-05 02:02:00,40.5,28.0,30.03,SSW,201,3.0,-999.0,61,-99.99,,,0.00,0,weatherlink.com 1.10,2013-04-05 06:02:00,
2013-04-05 02:17:00,40.4,28.0,30.02,South,181,1.0,-999.0,62,-99.99,,,0.00,0,weatherlink.com 1.10,2013-04-05 06:17:00,
2013-04-05 02:32:00,40.4,29.0,30.01,SSE,162,0.0,-999.0,63,-99.99,,,0.00,0,weatherlink.com 1.10,2013-04-05 06:32:00,
2013-04-05 02:47:00,40.4,29.0,30.01,SSW,205,0.0,-999.0,64,-99.99,,,0.00,0,weatherlink.com 1.10,2013-04-05 06:47:00,
2013-04-05 03:03:00,40.4,29.0,30.00,South,185,4.0,-999.0,65,-99.99,,,0.00,0,weatherlink.com 1.10,2013-04-05 07:03:00,
2013-04-05 03:18:00,40.5,30.0,30.00,SSW,200,2.0,-999.0,66,-99.99,,,0.00,0,weatherlink.com 1.10,2013-04-05 07:18:00,
2013-04-05 03:33:00,40.5,30.0,29.99,South,174,4.0,-999.0,66,-99.99,,,0.00,0,weatherlink.com 1.10,2013-04-05 07:33:00,
2013-04-05 03:48:00,40.4,30.0,29.98,SSE,150,5.0,-999.0,66,-99.99,,,0.00,0,weatherlink.com 1.10,2013-04-05 07:48:00,
2013-04-05 04:03:00,40.3,30.0,29.97,SSW,201,1.0,-999.0,67,-99.99,,,0.00,0,weatherlink.com 1.10,2013-04-05 08:03:00,
2013-04-05 04:18:00,40.3,30.0,29.97,SSW,194,0.0,-999.0,68,-99.99,,,0.00,0,weatherlink.com 1.10,2013-04-05 08:18:00,
2013-04-05 04:33:00,40.4,31.0,29.96,South,174,2.0,-999.0,69,-99.99,,,0.00,0,weatherlink.com 1.10,2013-04-05 08:33:00,
2013-04-05 04:48:00,40.4,31.0,29.96,SSE,166,0.0,-999.0,70,-99.99,,,0.00,0,weatherlink.com 1.10,2013-04-05 08:48:00,
2013-04-05 05:02:00,40.3,31.0,29.95,SSW,198,1.0,-999.0,70,-99.99,,,0.00,0,weatherlink.com 1.10,2013-04-05 09:02:00,
2013-04-05 05:17:00,40.4,32.0,29.94,SSW,198,0.0,-999.0,71,-99.99,,,0.00,0,weatherlink.com 1.10,2013-04-05 09:17:00,
2013-04-05 05:32:00,40.4,32.0,29.94,SSW,198,0.0,-999.0,71,-99.99,,,0.00,0,weatherlink.com 1.10,2013-04-05 09:32:00,
2013-04-05 05:47:00,40.3,32.0,29.94,SSW,198,0.0,-999.0,71,-99.99,,,0.00,0,weatherlink.com 1.10,2013-04-05 09:47:00,
2013-04-05 06:02:00,40.3,32.0,29.94,SSW,198,0.0,-999.0,72,-99.99,,,0.00,0,weatherlink.com 1.10,2013-04-05 10:02:00,
2013-04-05 06:18:00,40.3,32.0,29.93,SSW,198,0.0,-999.0,72,-99.99,,,0.00,0,weatherlink.com 1.10,2013-04-05 10:18:00,
2013-04-05 06:33:00,40.3,32.0,29.93,SSW,198,1.0,-999.0,73,-99.99,,,0.00,0,weatherlink.com 1.10,2013-04-05 10:33:00,
2013-04-05 06:50:00,40.3,32.0,29.92,SSW,198,0.0,-999.0,73,-99.99,,,0.00,0,weatherlink.com 1.10,2013-04-05 10:50:00,
2013-04-05 07:03:00,40.4,32.0,29.93,SSW,198,0.0,-999.0,73,-99.99,,,0.00,5,weatherlink.com 1.10,2013-04-05 11:03:00,
2013-04-05 07:18:00,40.4,32.0,29.93,SSW,198,0.0,-999.0,73,-99.99,,,0.00,14,weatherlink.com 1.10,2013-04-05 11:18:00,
2013-04-05 07:33:00,40.4,32.0,29.92,SSW,198,0.0,-999.0,73,-99.99,,,0.00,39,weatherlink.com 1.10,2013-04-05 11:33:00,
2013-04-05 07:48:00,40.6,33.0,29.91,SSW,198,0.0,-999.0,74,-99.99,,,0.00,63,weatherlink.com 1.10,2013-04-05 11:48:00,
2013-04-05 08:03:00,41.0,33.0,29.90,SSW,198,0.0,-999.0,73,-99.99,,,0.00,74,weatherlink.com 1.10,2013-04-05 12:03:00,
2013-04-05 08:18:00,41.4,33.0,29.90,SSW,198,0.0,-999.0,73,-99.99,,,0.00,118,weatherlink.com 1.10,2013-04-05 12:18:00,
2013-04-05 08:33:00,41.7,33.0,29.90,SSW,198,0.0,-999.0,71,-99.99,,,0.00,118,weatherlink.com 1.10,2013-04-05 12:33:00,
2013-04-05 08:48:00,42.1,33.0,29.90,SSW,198,0.0,-999.0,70,-99.99,,,0.00,109,weatherlink.com 1.10,2013-04-05 12:48:00,
2013-04-05 09:03:00,42.5,33.0,29.89,West,263,0.0,-999.0,68,-99.99,,,0.00,178,weatherlink.com 1.10,2013-04-05 13:03:00,
2013-04-05 09:18:00,43.4,33.0,29.88,West,264,0.0,-999.0,67,-99.99,,,0.00,255,weatherlink.com 1.10,2013-04-05 13:18:00,
2013-04-05 09:33:00,44.6,33.0,29.87,West,264,0.0,-999.0,64,-99.99,,,0.00,534,weatherlink.com 1.10,2013-04-05 13:33:00,
2013-04-05 09:48:00,46.3,33.0,29.86,West,277,4.0,-999.0,61,-99.99,,,0.00,596,weatherlink.com 1.10,2013-04-05 13:48:00,
2013-04-05 10:04:00,47.4,32.0,29.85,WNW,290,3.0,-999.0,56,-99.99,,,0.00,668,weatherlink.com 1.10,2013-04-05 14:04:00,
2013-04-05 10:19:00,49.0,32.0,29.85,WNW,297,0.0,-999.0,52,-99.99,,,0.00,624,weatherlink.com 1.10,2013-04-05 14:19:00,
2013-04-05 11:19:00,53.4,31.0,29.82,NW,320,2.0,-999.0,43,-99.99,,,0.00,768,weatherlink.com 1.10,2013-04-05 15:19:00,
2013-04-05 11:34:00,54.3,31.0,29.82,NE,35,1.0,-999.0,41,-99.99,,,0.00,791,weatherlink.com 1.10,2013-04-05 15:34:00,
2013-04-05 11:49:00,55.1,30.0,29.80,WNW,292,4.0,-999.0,39,-99.99,,,0.00,735,weatherlink.com 1.10,2013-04-05 15:49:00,
2013-04-05 12:04:00,56.2,31.0,29.80,North,5,0.0,-999.0,39,-99.99,,,0.00,830,weatherlink.com 1.10,2013-04-05 16:04:00,
2013-04-05 12:20:00,56.8,30.0,29.79,North,9,8.0,-999.0,36,-99.99,,,0.00,844,weatherlink.com 1.10,2013-04-05 16:20:00,
2013-04-05 12:34:00,57.6,25.0,29.78,NW,307,2.0,-999.0,29,-99.99,,,0.00,854,weatherlink.com 1.10,2013-04-05 16:34:00,
2013-04-05 12:49:00,59.2,24.0,29.76,NNW,331,3.0,-999.0,26,-99.99,,,0.00,870,weatherlink.com 1.10,2013-04-05 16:49:00,
2013-04-05 13:04:00,59.8,25.0,29.75,NW,307,2.0,-999.0,26,-99.99,,,0.00,867,weatherlink.com 1.10,2013-04-05 17:04:00,
2013-04-05 13:19:00,60.8,25.0,29.74,NNW,339,6.0,-999.0,26,-99.99,,,0.00,863,weatherlink.com 1.10,2013-04-05 17:19:00,
2013-04-05 13:34:00,61.7,24.0,29.73,NW,321,2.0,-999.0,24,-99.99,,,0.00,856,weatherlink.com 1.10,2013-04-05 17:34:00,
2013-04-05 13:49:00,62.3,22.0,29.73,West,277,3.0,-999.0,21,-99.99,,,0.00,846,weatherlink.com 1.10,2013-04-05 17:49:00,
2013-04-05 14:20:00,62.8,21.0,29.71,West,277,8.0,-999.0,20,-99.99,,,0.00,816,weatherlink.com 1.10,2013-04-05 18:20:00,
2013-04-05 14:35:00,62.9,23.0,29.71,NW,319,2.0,-999.0,22,-99.99,,,0.00,793,weatherlink.com 1.10,2013-04-05 18:35:00,
2013-04-05 14:50:00,64.7,24.0,29.70,West,278,7.0,-999.0,21,-99.99,,,0.00,766,weatherlink.com 1.10,2013-04-05 18:50:00,
2013-04-05 15:05:00,64.1,22.0,29.70,NW,305,14.0,-999.0,20,-99.99,,,0.00,738,weatherlink.com 1.10,2013-04-05 19:05:00,
2013-04-05 15:19:00,64.2,24.0,29.69,WNW,292,6.0,-999.0,22,-99.99,,,0.00,701,weatherlink.com 1.10,2013-04-05 19:19:00,
2013-04-05 15:49:00,64.8,27.0,29.68,WNW,296,3.0,-999.0,24,-99.99,,,0.00,621,weatherlink.com 1.10,2013-04-05 19:49:00,
2013-04-05 16:04:00,64.3,27.0,29.69,NNE,24,3.0,-999.0,24,-99.99,,,0.00,582,weatherlink.com 1.10,2013-04-05 20:04:00,
2013-04-05 16:19:00,63.7,26.0,29.70,NW,310,9.0,-999.0,24,-99.99,,,0.00,541,weatherlink.com 1.10,2013-04-05 20:19:00,
2013-04-05 16:34:00,63.7,24.0,29.70,WNW,301,8.0,-999.0,22,-99.99,,,0.00,501,weatherlink.com 1.10,2013-04-05 20:34:00,
2013-04-05 16:49:00,62.6,24.0,29.71,West,280,10.0,-999.0,23,-99.99,,,0.00,429,weatherlink.com 1.10,2013-04-05 20:49:00,
2013-04-05 17:04:00,62.3,24.0,29.72,NW,311,12.0,-999.0,23,-99.99,,,0.00,276,weatherlink.com 1.10,2013-04-05 21:04:00,
2013-04-05 17:19:00,61.8,24.0,29.73,WNW,290,2.0,-999.0,24,-99.99,,,0.00,287,weatherlink.com 1.10,2013-04-05 21:19:00,
2013-04-05 17:34:00,61.1,24.0,29.74,NW,314,9.0,-999.0,24,-99.99,,,0.00,258,weatherlink.com 1.10,2013-04-05 21:34:00,
2013-04-05 17:49:00,60.8,24.0,29.75,WNW,302,5.0,-999.0,24,-99.99,,,0.00,107,weatherlink.com 1.10,2013-04-05 21:49:00,
2013-04-05 18:04:00,59.9,22.0,29.76,NW,310,8.0,-999.0,23,-99.99,,,0.00,142,weatherlink.com 1.10,2013-04-05 22:04:00,
2013-04-05 18:19:00,59.5,22.0,29.77,WNW,292,4.0,-999.0,24,-99.99,,,0.00,54,weatherlink.com 1.10,2013-04-05 22:19:00,
2013-04-05 18:34:00,59.0,21.0,29.78,NW,321,11.0,-999.0,23,-99.99,,,0.00,67,weatherlink.com 1.10,2013-04-05 22:34:00,
2013-04-05 18:49:00,58.3,22.0,29.79,NW,307,5.0,-999.0,25,-99.99,,,0.00,42,weatherlink.com 1.10,2013-04-05 22:49:00,
2013-04-05 19:04:00,57.3,22.0,29.79,North,355,7.0,-999.0,26,-99.99,,,0.00,19,weatherlink.com 1.10,2013-04-05 23:04:00,
2013-04-05 19:19:00,56.6,22.0,29.80,North,355,7.0,-999.0,26,-99.99,,,0.00,9,weatherlink.com 1.10,2013-04-05 23:19:00,
2013-04-05 19:34:00,55.7,21.0,29.81,NNW,333,3.0,-999.0,26,-99.99,,,0.00,0,weatherlink.com 1.10,2013-04-05 23:34:00,
2013-04-05 19:49:00,54.9,22.0,29.82,NW,324,2.0,-999.0,28,-99.99,,,0.00,0,weatherlink.com 1.10,2013-04-05 23:49:00,
2013-04-05 20:04:00,54.3,22.0,29.82,NNW,338,3.0,-999.0,29,-99.99,,,0.00,0,weatherlink.com 1.10,2013-04-06 00:04:00,
2013-04-05 20:19:00,53.6,22.0,29.84,North,360,7.0,-999.0,29,-99.99,,,0.00,0,weatherlink.com 1.10,2013-04-06 00:19:00,
2013-04-05 20:34:00,52.9,22.0,29.85,NW,314,3.0,-999.0,30,-99.99,,,0.00,0,weatherlink.com 1.10,2013-04-06 00:34:00,
2013-04-05 20:49:00,52.3,22.0,29.87,WNW,288,6.0,-999.0,31,-99.99,,,0.00,0,weatherlink.com 1.10,2013-04-06 00:49:00,
2013-04-05 21:05:00,51.5,22.0,29.88,NNW,338,5.0,-999.0,32,-99.99,,,0.00,0,weatherlink.com 1.10,2013-04-06 01:05:00,
2013-04-05 21:20:00,50.7,22.0,29.90,NNW,328,2.0,-999.0,33,-99.99,,,0.00,0,weatherlink.com 1.10,2013-04-06 01:20:00,
2013-04-05 21:35:00,49.8,22.0,29.91,NNE,15,5.0,-999.0,34,-99.99,,,0.00,0,weatherlink.com 1.10,2013-04-06 01:35:00,
2013-04-05 21:50:00,49.1,23.0,29.92,NW,319,2.0,-999.0,36,-99.99,,,0.00,0,weatherlink.com 1.10,2013-04-06 01:50:00,
2013-04-05 22:05:00,48.1,24.0,29.93,NNW,327,2.0,-999.0,39,-99.99,,,0.00,0,weatherlink.com 1.10,2013-04-06 02:05:00,
2013-04-05 22:20:00,47.3,24.0,29.94,NW,314,10.0,-999.0,40,-99.99,,,0.00,0,weatherlink.com 1.10,2013-04-06 02:20:00,
2013-04-05 22:35:00,46.6,24.0,29.95,NNW,330,4.0,-999.0,41,-99.99,,,0.00,0,weatherlink.com 1.10,2013-04-06 02:35:00,
2013-04-05 22:50:00,45.5,23.0,29.95,NNE,30,5.0,-999.0,41,-99.99,,,0.00,0,weatherlink.com 1.10,2013-04-06 02:50:00,
2013-04-05 23:05:00,44.7,22.0,29.96,NW,304,4.0,-999.0,40,-99.99,,,0.00,0,weatherlink.com 1.10,2013-04-06 03:05:00,
2013-04-05 23:20:00,44.2,21.0,29.96,NW,319,4.0,-999.0,40,-99.99,,,0.00,0,weatherlink.com 1.10,2013-04-06 03:20:00,
2013-04-05 23:35:00,43.6,21.0,29.97,NW,326,10.0,-999.0,40,-99.99,,,0.00,0,weatherlink.com 1.10,2013-04-06 03:35:00,
2013-04-05 23:49:00,43.3,20.0,29.98,NW,309,6.0,-999.0,40,-99.99,,,0.00,0,weatherlink.com 1.10,2013-04-06 03:49:00,